sensor_id;sensor_type;location;lat;lon;timestamp;P1;durP1;ratioP1;P2;durP2;ratioP2
23142;SDS011;11740;51.168;4.112;2022-07-17T00:01:20;3.40;;;1.60;;
23142;SDS011;11740;51.168;4.112;2022-07-17T00:03:47;2.70;;;1.40;;
23142;SDS011;11740;51.168;4.112;2022-07-17T00:06:15;2.22;;;1.65;;
23142;SDS011;11740;51.168;4.112;2022-07-17T00:08:41;1.88;;;1.70;;
23142;SDS011;11740;51.168;4.112;2022-07-17T00:11:10;2.72;;;1.73;;
23142;SDS011;11740;51.168;4.112;2022-07-17T00:13:37;2.20;;;1.50;;
23142;SDS011;11740;51.168;4.112;2022-07-17T00:16:05;4.45;;;1.70;;
23142;SDS011;11740;51.168;4.112;2022-07-17T00:18:33;2.08;;;1.73;;
23142;SDS011;11740;51.168;4.112;2022-07-17T00:21:00;2.60;;;1.45;;
23142;SDS011;11740;51.168;4.112;2022-07-17T00:23:27;3.33;;;1.83;;
23142;SDS011;11740;51.168;4.112;2022-07-17T00:25:54;7.30;;;1.70;;
23142;SDS011;11740;51.168;4.112;2022-07-17T00:28:22;3.20;;;1.33;;
23142;SDS011;11740;51.168;4.112;2022-07-17T00:30:49;3.60;;;1.80;;
23142;SDS011;11740;51.168;4.112;2022-07-17T00:33:15;3.67;;;1.67;;
23142;SDS011;11740;51.168;4.112;2022-07-17T00:35:42;3.15;;;1.80;;
23142;SDS011;11740;51.168;4.112;2022-07-17T00:38:10;2.72;;;1.48;;
23142;SDS011;11740;51.168;4.112;2022-07-17T00:40:37;2.53;;;1.50;;
23142;SDS011;11740;51.168;4.112;2022-07-17T00:43:04;3.97;;;1.67;;
23142;SDS011;11740;51.168;4.112;2022-07-17T00:45:31;3.25;;;1.65;;
23142;SDS011;11740;51.168;4.112;2022-07-17T00:47:59;2.67;;;1.70;;
23142;SDS011;11740;51.168;4.112;2022-07-17T00:50:33;3.30;;;1.95;;
23142;SDS011;11740;51.168;4.112;2022-07-17T00:53:03;4.50;;;1.60;;
23142;SDS011;11740;51.168;4.112;2022-07-17T00:55:32;3.67;;;1.70;;
23142;SDS011;11740;51.168;4.112;2022-07-17T00:58:09;2.13;;;1.73;;
23142;SDS011;11740;51.168;4.112;2022-07-17T01:00:37;3.47;;;1.77;;
23142;SDS011;11740;51.168;4.112;2022-07-17T01:03:04;3.53;;;1.80;;
23142;SDS011;11740;51.168;4.112;2022-07-17T01:05:35;2.78;;;1.73;;
23142;SDS011;11740;51.168;4.112;2022-07-17T01:08:02;3.08;;;1.73;;
23142;SDS011;11740;51.168;4.112;2022-07-17T01:10:37;3.88;;;1.80;;
23142;SDS011;11740;51.168;4.112;2022-07-17T01:13:05;5.88;;;2.00;;
23142;SDS011;11740;51.168;4.112;2022-07-17T01:15:35;4.65;;;2.10;;
23142;SDS011;11740;51.168;4.112;2022-07-17T01:18:05;4.25;;;1.77;;
23142;SDS011;11740;51.168;4.112;2022-07-17T01:20:36;2.78;;;1.60;;
23142;SDS011;11740;51.168;4.112;2022-07-17T01:23:04;5.28;;;1.40;;
23142;SDS011;11740;51.168;4.112;2022-07-17T01:25:32;2.08;;;1.58;;
23142;SDS011;11740;51.168;4.112;2022-07-17T01:28:01;3.92;;;1.70;;
23142;SDS011;11740;51.168;4.112;2022-07-17T01:30:30;4.28;;;1.65;;
23142;SDS011;11740;51.168;4.112;2022-07-17T01:32:58;3.60;;;1.52;;
23142;SDS011;11740;51.168;4.112;2022-07-17T01:35:25;3.47;;;1.80;;
23142;SDS011;11740;51.168;4.112;2022-07-17T01:37:53;3.40;;;2.03;;
23142;SDS011;11740;51.168;4.112;2022-07-17T01:40:21;3.33;;;1.55;;
23142;SDS011;11740;51.168;4.112;2022-07-17T01:42:48;4.20;;;2.03;;
23142;SDS011;11740;51.168;4.112;2022-07-17T01:45:17;3.97;;;1.67;;
23142;SDS011;11740;51.168;4.112;2022-07-17T01:47:45;3.58;;;1.83;;
23142;SDS011;11740;51.168;4.112;2022-07-17T01:50:14;3.72;;;1.88;;
23142;SDS011;11740;51.168;4.112;2022-07-17T01:52:42;2.28;;;1.77;;
23142;SDS011;11740;51.168;4.112;2022-07-17T01:55:12;4.80;;;1.63;;
23142;SDS011;11740;51.168;4.112;2022-07-17T01:57:42;3.85;;;1.73;;
23142;SDS011;11740;51.168;4.112;2022-07-17T02:00:11;6.18;;;2.25;;
23142;SDS011;11740;51.168;4.112;2022-07-17T02:02:43;4.47;;;2.22;;
23142;SDS011;11740;51.168;4.112;2022-07-17T02:05:12;2.97;;;2.00;;
23142;SDS011;11740;51.168;4.112;2022-07-17T02:07:39;3.70;;;2.25;;
23142;SDS011;11740;51.168;4.112;2022-07-17T02:10:08;4.28;;;2.40;;
23142;SDS011;11740;51.168;4.112;2022-07-17T02:12:37;3.53;;;1.90;;
23142;SDS011;11740;51.168;4.112;2022-07-17T02:15:04;2.85;;;1.77;;
23142;SDS011;11740;51.168;4.112;2022-07-17T02:17:32;4.45;;;2.28;;
23142;SDS011;11740;51.168;4.112;2022-07-17T02:19:59;3.88;;;2.00;;
23142;SDS011;11740;51.168;4.112;2022-07-17T02:22:27;2.22;;;1.50;;
23142;SDS011;11740;51.168;4.112;2022-07-17T02:24:54;4.85;;;2.10;;
23142;SDS011;11740;51.168;4.112;2022-07-17T02:27:21;4.72;;;1.90;;
23142;SDS011;11740;51.168;4.112;2022-07-17T02:29:48;2.78;;;1.40;;
23142;SDS011;11740;51.168;4.112;2022-07-17T02:32:15;2.30;;;1.77;;
23142;SDS011;11740;51.168;4.112;2022-07-17T02:34:42;3.80;;;1.83;;
23142;SDS011;11740;51.168;4.112;2022-07-17T02:37:09;3.17;;;1.73;;
23142;SDS011;11740;51.168;4.112;2022-07-17T02:39:36;2.83;;;1.90;;
23142;SDS011;11740;51.168;4.112;2022-07-17T02:42:19;3.78;;;1.88;;
23142;SDS011;11740;51.168;4.112;2022-07-17T02:44:51;3.33;;;1.65;;
23142;SDS011;11740;51.168;4.112;2022-07-17T02:47:27;2.72;;;1.67;;
23142;SDS011;11740;51.168;4.112;2022-07-17T02:49:59;2.33;;;1.60;;
23142;SDS011;11740;51.168;4.112;2022-07-17T02:52:28;2.63;;;1.80;;
23142;SDS011;11740;51.168;4.112;2022-07-17T02:54:55;3.28;;;2.03;;
23142;SDS011;11740;51.168;4.112;2022-07-17T02:57:23;3.05;;;2.10;;
23142;SDS011;11740;51.168;4.112;2022-07-17T02:59:51;3.03;;;2.00;;
23142;SDS011;11740;51.168;4.112;2022-07-17T03:02:19;3.03;;;1.80;;
23142;SDS011;11740;51.168;4.112;2022-07-17T03:04:46;5.60;;;2.35;;
23142;SDS011;11740;51.168;4.112;2022-07-17T03:07:13;3.90;;;2.13;;
23142;SDS011;11740;51.168;4.112;2022-07-17T03:09:40;2.97;;;1.58;;
23142;SDS011;11740;51.168;4.112;2022-07-17T03:12:07;3.95;;;1.73;;
23142;SDS011;11740;51.168;4.112;2022-07-17T03:14:34;2.38;;;1.80;;
23142;SDS011;11740;51.168;4.112;2022-07-17T03:17:01;3.25;;;1.58;;
23142;SDS011;11740;51.168;4.112;2022-07-17T03:19:28;3.80;;;1.77;;
23142;SDS011;11740;51.168;4.112;2022-07-17T03:21:56;1.80;;;1.38;;
23142;SDS011;11740;51.168;4.112;2022-07-17T03:24:23;3.33;;;1.50;;
23142;SDS011;11740;51.168;4.112;2022-07-17T03:26:50;2.50;;;1.60;;
23142;SDS011;11740;51.168;4.112;2022-07-17T03:29:17;3.00;;;1.50;;
23142;SDS011;11740;51.168;4.112;2022-07-17T03:31:45;5.05;;;1.92;;
23142;SDS011;11740;51.168;4.112;2022-07-17T03:34:21;3.72;;;1.50;;
23142;SDS011;11740;51.168;4.112;2022-07-17T03:36:48;3.08;;;1.58;;
23142;SDS011;11740;51.168;4.112;2022-07-17T03:39:15;3.10;;;2.00;;
23142;SDS011;11740;51.168;4.112;2022-07-17T03:41:42;3.88;;;1.70;;
23142;SDS011;11740;51.168;4.112;2022-07-17T03:44:09;2.90;;;1.50;;
23142;SDS011;11740;51.168;4.112;2022-07-17T03:46:36;4.75;;;1.80;;
23142;SDS011;11740;51.168;4.112;2022-07-17T03:49:03;4.30;;;1.83;;
23142;SDS011;11740;51.168;4.112;2022-07-17T03:51:30;5.10;;;2.05;;
23142;SDS011;11740;51.168;4.112;2022-07-17T03:53:57;5.90;;;2.47;;
23142;SDS011;11740;51.168;4.112;2022-07-17T03:56:25;4.25;;;1.52;;
23142;SDS011;11740;51.168;4.112;2022-07-17T03:58:52;3.95;;;1.73;;
23142;SDS011;11740;51.168;4.112;2022-07-17T04:01:19;5.05;;;2.10;;
23142;SDS011;11740;51.168;4.112;2022-07-17T04:03:46;2.72;;;2.08;;
23142;SDS011;11740;51.168;4.112;2022-07-17T04:06:13;2.58;;;2.10;;
23142;SDS011;11740;51.168;4.112;2022-07-17T04:08:40;5.00;;;1.98;;
23142;SDS011;11740;51.168;4.112;2022-07-17T04:11:07;4.88;;;2.13;;
23142;SDS011;11740;51.168;4.112;2022-07-17T04:13:36;5.55;;;2.20;;
23142;SDS011;11740;51.168;4.112;2022-07-17T04:16:04;5.18;;;2.20;;
23142;SDS011;11740;51.168;4.112;2022-07-17T04:18:33;8.30;;;2.72;;
23142;SDS011;11740;51.168;4.112;2022-07-17T04:21:03;4.82;;;2.47;;
23142;SDS011;11740;51.168;4.112;2022-07-17T04:23:36;3.40;;;2.00;;
23142;SDS011;11740;51.168;4.112;2022-07-17T04:26:04;2.38;;;2.00;;
23142;SDS011;11740;51.168;4.112;2022-07-17T04:28:36;3.63;;;2.10;;
23142;SDS011;11740;51.168;4.112;2022-07-17T04:31:06;4.38;;;1.92;;
23142;SDS011;11740;51.168;4.112;2022-07-17T04:33:34;4.40;;;2.20;;
23142;SDS011;11740;51.168;4.112;2022-07-17T04:36:01;4.78;;;1.80;;
23142;SDS011;11740;51.168;4.112;2022-07-17T04:38:28;3.05;;;2.10;;
23142;SDS011;11740;51.168;4.112;2022-07-17T04:40:55;4.82;;;2.05;;
23142;SDS011;11740;51.168;4.112;2022-07-17T04:43:23;2.97;;;1.92;;
23142;SDS011;11740;51.168;4.112;2022-07-17T04:45:50;4.32;;;2.20;;
23142;SDS011;11740;51.168;4.112;2022-07-17T04:48:17;5.72;;;2.35;;
23142;SDS011;11740;51.168;4.112;2022-07-17T04:50:44;4.57;;;2.10;;
23142;SDS011;11740;51.168;4.112;2022-07-17T04:53:11;5.30;;;2.17;;
23142;SDS011;11740;51.168;4.112;2022-07-17T04:55:38;5.70;;;1.73;;
23142;SDS011;11740;51.168;4.112;2022-07-17T04:58:05;3.65;;;1.80;;
23142;SDS011;11740;51.168;4.112;2022-07-17T05:00:33;4.30;;;1.92;;
23142;SDS011;11740;51.168;4.112;2022-07-17T05:03:00;2.03;;;1.48;;
23142;SDS011;11740;51.168;4.112;2022-07-17T05:05:27;3.17;;;1.65;;
23142;SDS011;11740;51.168;4.112;2022-07-17T05:07:54;3.97;;;1.65;;
23142;SDS011;11740;51.168;4.112;2022-07-17T05:10:21;6.88;;;2.10;;
23142;SDS011;11740;51.168;4.112;2022-07-17T05:12:53;4.45;;;1.90;;
23142;SDS011;11740;51.168;4.112;2022-07-17T05:15:21;3.50;;;1.58;;
23142;SDS011;11740;51.168;4.112;2022-07-17T05:17:48;4.43;;;2.00;;
23142;SDS011;11740;51.168;4.112;2022-07-17T05:20:15;2.45;;;1.50;;
23142;SDS011;11740;51.168;4.112;2022-07-17T05:22:42;4.22;;;1.88;;
23142;SDS011;11740;51.168;4.112;2022-07-17T05:25:09;4.22;;;2.17;;
23142;SDS011;11740;51.168;4.112;2022-07-17T05:27:36;4.65;;;2.33;;
23142;SDS011;11740;51.168;4.112;2022-07-17T05:30:03;4.47;;;2.55;;
23142;SDS011;11740;51.168;4.112;2022-07-17T05:32:30;6.68;;;2.75;;
23142;SDS011;11740;51.168;4.112;2022-07-17T05:34:57;4.15;;;2.47;;
23142;SDS011;11740;51.168;4.112;2022-07-17T05:37:25;3.13;;;2.05;;
23142;SDS011;11740;51.168;4.112;2022-07-17T05:39:52;3.80;;;2.38;;
23142;SDS011;11740;51.168;4.112;2022-07-17T05:42:19;4.78;;;2.10;;
23142;SDS011;11740;51.168;4.112;2022-07-17T05:44:46;6.95;;;2.30;;
23142;SDS011;11740;51.168;4.112;2022-07-17T05:47:13;4.35;;;2.20;;
23142;SDS011;11740;51.168;4.112;2022-07-17T05:49:40;5.05;;;2.05;;
23142;SDS011;11740;51.168;4.112;2022-07-17T05:52:07;4.57;;;2.17;;
23142;SDS011;11740;51.168;4.112;2022-07-17T05:54:34;4.88;;;1.95;;
23142;SDS011;11740;51.168;4.112;2022-07-17T05:57:01;6.20;;;1.92;;
23142;SDS011;11740;51.168;4.112;2022-07-17T05:59:35;2.97;;;1.40;;
23142;SDS011;11740;51.168;4.112;2022-07-17T06:02:03;3.75;;;1.80;;
23142;SDS011;11740;51.168;4.112;2022-07-17T06:04:31;6.97;;;1.98;;
23142;SDS011;11740;51.168;4.112;2022-07-17T06:06:58;6.30;;;1.60;;
23142;SDS011;11740;51.168;4.112;2022-07-17T06:09:25;4.30;;;1.67;;
23142;SDS011;11740;51.168;4.112;2022-07-17T06:11:52;2.83;;;1.67;;
23142;SDS011;11740;51.168;4.112;2022-07-17T06:14:19;4.50;;;1.60;;
23142;SDS011;11740;51.168;4.112;2022-07-17T06:16:46;4.55;;;1.65;;
23142;SDS011;11740;51.168;4.112;2022-07-17T06:19:13;6.28;;;1.70;;
23142;SDS011;11740;51.168;4.112;2022-07-17T06:21:40;5.00;;;1.92;;
23142;SDS011;11740;51.168;4.112;2022-07-17T06:24:07;3.88;;;1.42;;
23142;SDS011;11740;51.168;4.112;2022-07-17T06:26:34;6.07;;;1.75;;
23142;SDS011;11740;51.168;4.112;2022-07-17T06:29:01;4.20;;;1.48;;
23142;SDS011;11740;51.168;4.112;2022-07-17T06:31:28;6.57;;;1.90;;
23142;SDS011;11740;51.168;4.112;2022-07-17T06:33:56;6.15;;;1.83;;
23142;SDS011;11740;51.168;4.112;2022-07-17T06:36:23;4.72;;;1.80;;
23142;SDS011;11740;51.168;4.112;2022-07-17T06:38:50;5.25;;;1.67;;
23142;SDS011;11740;51.168;4.112;2022-07-17T06:41:17;5.25;;;1.60;;
23142;SDS011;11740;51.168;4.112;2022-07-17T06:43:44;6.13;;;1.88;;
23142;SDS011;11740;51.168;4.112;2022-07-17T06:46:11;3.90;;;1.70;;
23142;SDS011;11740;51.168;4.112;2022-07-17T06:48:38;5.13;;;1.70;;
23142;SDS011;11740;51.168;4.112;2022-07-17T06:51:05;7.53;;;1.60;;
23142;SDS011;11740;51.168;4.112;2022-07-17T06:53:32;7.70;;;2.03;;
23142;SDS011;11740;51.168;4.112;2022-07-17T06:55:59;5.93;;;1.92;;
23142;SDS011;11740;51.168;4.112;2022-07-17T06:58:26;8.93;;;1.60;;
23142;SDS011;11740;51.168;4.112;2022-07-17T07:00:53;6.72;;;1.50;;
23142;SDS011;11740;51.168;4.112;2022-07-17T07:03:20;5.97;;;1.58;;
23142;SDS011;11740;51.168;4.112;2022-07-17T07:05:47;6.40;;;1.27;;
23142;SDS011;11740;51.168;4.112;2022-07-17T07:08:15;8.13;;;1.90;;
23142;SDS011;11740;51.168;4.112;2022-07-17T07:10:42;4.72;;;1.55;;
23142;SDS011;11740;51.168;4.112;2022-07-17T07:13:10;5.30;;;1.42;;
23142;SDS011;11740;51.168;4.112;2022-07-17T07:15:39;5.40;;;1.55;;
23142;SDS011;11740;51.168;4.112;2022-07-17T07:18:06;6.18;;;1.52;;
23142;SDS011;11740;51.168;4.112;2022-07-17T07:20:33;3.05;;;1.38;;
23142;SDS011;11740;51.168;4.112;2022-07-17T07:23:00;4.80;;;1.45;;
23142;SDS011;11740;51.168;4.112;2022-07-17T07:25:32;7.10;;;1.50;;
23142;SDS011;11740;51.168;4.112;2022-07-17T07:28:01;7.00;;;1.50;;
23142;SDS011;11740;51.168;4.112;2022-07-17T07:30:29;3.45;;;1.35;;
23142;SDS011;11740;51.168;4.112;2022-07-17T07:32:57;6.63;;;1.50;;
23142;SDS011;11740;51.168;4.112;2022-07-17T07:35:24;5.85;;;1.25;;
23142;SDS011;11740;51.168;4.112;2022-07-17T07:37:51;3.25;;;1.10;;
23142;SDS011;11740;51.168;4.112;2022-07-17T07:40:18;6.57;;;1.40;;
23142;SDS011;11740;51.168;4.112;2022-07-17T07:42:46;7.22;;;1.60;;
23142;SDS011;11740;51.168;4.112;2022-07-17T07:45:13;5.25;;;1.67;;
23142;SDS011;11740;51.168;4.112;2022-07-17T07:47:43;3.75;;;1.10;;
23142;SDS011;11740;51.168;4.112;2022-07-17T07:50:16;6.82;;;1.50;;
23142;SDS011;11740;51.168;4.112;2022-07-17T07:52:44;5.47;;;1.55;;
23142;SDS011;11740;51.168;4.112;2022-07-17T07:55:12;8.35;;;1.30;;
23142;SDS011;11740;51.168;4.112;2022-07-17T07:57:49;7.00;;;1.83;;
23142;SDS011;11740;51.168;4.112;2022-07-17T08:00:34;4.90;;;1.10;;
23142;SDS011;11740;51.168;4.112;2022-07-17T08:03:02;4.68;;;1.67;;
23142;SDS011;11740;51.168;4.112;2022-07-17T08:05:30;4.20;;;1.23;;
23142;SDS011;11740;51.168;4.112;2022-07-17T08:07:58;4.78;;;1.40;;
23142;SDS011;11740;51.168;4.112;2022-07-17T08:10:25;8.95;;;1.50;;
23142;SDS011;11740;51.168;4.112;2022-07-17T08:12:53;5.50;;;1.20;;
23142;SDS011;11740;51.168;4.112;2022-07-17T08:15:21;3.00;;;1.23;;
23142;SDS011;11740;51.168;4.112;2022-07-17T08:17:56;2.38;;;1.10;;
23142;SDS011;11740;51.168;4.112;2022-07-17T08:20:23;4.00;;;1.40;;
23142;SDS011;11740;51.168;4.112;2022-07-17T08:22:51;4.60;;;1.30;;
23142;SDS011;11740;51.168;4.112;2022-07-17T08:25:30;3.63;;;1.25;;
23142;SDS011;11740;51.168;4.112;2022-07-17T08:27:58;6.65;;;1.60;;
23142;SDS011;11740;51.168;4.112;2022-07-17T08:30:25;4.45;;;1.42;;
23142;SDS011;11740;51.168;4.112;2022-07-17T08:32:53;3.85;;;1.50;;
23142;SDS011;11740;51.168;4.112;2022-07-17T08:35:20;7.95;;;1.80;;
23142;SDS011;11740;51.168;4.112;2022-07-17T08:37:48;5.90;;;1.35;;
23142;SDS011;11740;51.168;4.112;2022-07-17T08:42:50;5.60;;;1.30;;
23142;SDS011;11740;51.168;4.112;2022-07-17T08:45:18;5.50;;;1.25;;
23142;SDS011;11740;51.168;4.112;2022-07-17T08:47:47;4.97;;;1.30;;
23142;SDS011;11740;51.168;4.112;2022-07-17T08:50:39;2.17;;;0.98;;
23142;SDS011;11740;51.168;4.112;2022-07-17T08:53:06;5.32;;;1.50;;
23142;SDS011;11740;51.168;4.112;2022-07-17T08:55:34;3.53;;;1.48;;
23142;SDS011;11740;51.168;4.112;2022-07-17T08:58:02;3.65;;;1.23;;
23142;SDS011;11740;51.168;4.112;2022-07-17T09:00:31;6.88;;;1.38;;
23142;SDS011;11740;51.168;4.112;2022-07-17T09:03:07;6.28;;;1.63;;
23142;SDS011;11740;51.168;4.112;2022-07-17T09:05:39;5.68;;;1.70;;
23142;SDS011;11740;51.168;4.112;2022-07-17T09:08:11;5.78;;;1.45;;
23142;SDS011;11740;51.168;4.112;2022-07-17T09:10:46;5.78;;;1.30;;
23142;SDS011;11740;51.168;4.112;2022-07-17T09:13:19;4.22;;;1.40;;
23142;SDS011;11740;51.168;4.112;2022-07-17T09:15:53;3.50;;;1.20;;
23142;SDS011;11740;51.168;4.112;2022-07-17T09:18:42;4.63;;;1.42;;
23142;SDS011;11740;51.168;4.112;2022-07-17T09:21:21;4.03;;;1.58;;
23142;SDS011;11740;51.168;4.112;2022-07-17T09:24:04;3.58;;;1.20;;
23142;SDS011;11740;51.168;4.112;2022-07-17T09:26:34;4.57;;;1.30;;
23142;SDS011;11740;51.168;4.112;2022-07-17T09:29:03;5.45;;;1.52;;
23142;SDS011;11740;51.168;4.112;2022-07-17T09:31:31;3.22;;;1.20;;
23142;SDS011;11740;51.168;4.112;2022-07-17T09:34:00;3.35;;;1.27;;
23142;SDS011;11740;51.168;4.112;2022-07-17T09:36:27;7.47;;;1.58;;
23142;SDS011;11740;51.168;4.112;2022-07-17T09:38:56;5.78;;;1.73;;
23142;SDS011;11740;51.168;4.112;2022-07-17T09:41:25;3.35;;;1.42;;
23142;SDS011;11740;51.168;4.112;2022-07-17T09:44:00;3.65;;;1.40;;
23142;SDS011;11740;51.168;4.112;2022-07-17T09:46:32;5.43;;;1.50;;
23142;SDS011;11740;51.168;4.112;2022-07-17T09:49:06;4.50;;;1.60;;
23142;SDS011;11740;51.168;4.112;2022-07-17T09:51:37;5.40;;;1.80;;
23142;SDS011;11740;51.168;4.112;2022-07-17T09:54:09;6.50;;;1.90;;
23142;SDS011;11740;51.168;4.112;2022-07-17T09:56:39;5.10;;;2.00;;
23142;SDS011;11740;51.168;4.112;2022-07-17T09:59:07;5.22;;;1.83;;
23142;SDS011;11740;51.168;4.112;2022-07-17T10:01:40;6.18;;;1.77;;
23142;SDS011;11740;51.168;4.112;2022-07-17T10:04:10;7.20;;;1.80;;
23142;SDS011;11740;51.168;4.112;2022-07-17T10:06:38;5.05;;;2.10;;
23142;SDS011;11740;51.168;4.112;2022-07-17T10:09:06;3.90;;;2.22;;
23142;SDS011;11740;51.168;4.112;2022-07-17T10:11:34;5.50;;;2.35;;
23142;SDS011;11740;51.168;4.112;2022-07-17T10:14:13;5.95;;;2.10;;
23142;SDS011;11740;51.168;4.112;2022-07-17T10:16:43;7.30;;;2.10;;
23142;SDS011;11740;51.168;4.112;2022-07-17T10:19:16;3.85;;;1.90;;
23142;SDS011;11740;51.168;4.112;2022-07-17T10:21:52;4.65;;;2.08;;
23142;SDS011;11740;51.168;4.112;2022-07-17T10:24:23;5.97;;;2.28;;
23142;SDS011;11740;51.168;4.112;2022-07-17T10:26:54;4.25;;;2.20;;
23142;SDS011;11740;51.168;4.112;2022-07-17T10:29:25;4.90;;;2.45;;
23142;SDS011;11740;51.168;4.112;2022-07-17T10:31:59;6.00;;;2.28;;
23142;SDS011;11740;51.168;4.112;2022-07-17T10:40:23;7.28;;;2.17;;
23142;SDS011;11740;51.168;4.112;2022-07-17T10:43:05;6.88;;;2.40;;
23142;SDS011;11740;51.168;4.112;2022-07-17T10:45:40;5.75;;;2.00;;
23142;SDS011;11740;51.168;4.112;2022-07-17T10:50:46;3.80;;;2.20;;
23142;SDS011;11740;51.168;4.112;2022-07-17T10:53:20;5.03;;;2.55;;
23142;SDS011;11740;51.168;4.112;2022-07-17T10:58:37;5.25;;;2.47;;
23142;SDS011;11740;51.168;4.112;2022-07-17T11:01:10;6.40;;;2.60;;
23142;SDS011;11740;51.168;4.112;2022-07-17T11:03:49;4.72;;;2.35;;
23142;SDS011;11740;51.168;4.112;2022-07-17T11:09:10;4.50;;;2.10;;
23142;SDS011;11740;51.168;4.112;2022-07-17T11:14:10;3.83;;;2.33;;
23142;SDS011;11740;51.168;4.112;2022-07-17T11:22:05;5.80;;;2.35;;
23142;SDS011;11740;51.168;4.112;2022-07-17T11:27:18;4.13;;;3.00;;
23142;SDS011;11740;51.168;4.112;2022-07-17T11:29:55;4.18;;;2.88;;
23142;SDS011;11740;51.168;4.112;2022-07-17T11:32:24;4.18;;;3.30;;
23142;SDS011;11740;51.168;4.112;2022-07-17T11:35:17;4.68;;;3.08;;
23142;SDS011;11740;51.168;4.112;2022-07-17T11:38:05;4.57;;;2.95;;
23142;SDS011;11740;51.168;4.112;2022-07-17T11:40:33;5.97;;;3.22;;
23142;SDS011;11740;51.168;4.112;2022-07-17T11:43:00;3.50;;;3.20;;
23142;SDS011;11740;51.168;4.112;2022-07-17T11:45:29;6.30;;;2.80;;
23142;SDS011;11740;51.168;4.112;2022-07-17T11:48:05;5.03;;;2.45;;
23142;SDS011;11740;51.168;4.112;2022-07-17T11:50:32;5.32;;;2.75;;
23142;SDS011;11740;51.168;4.112;2022-07-17T11:53:00;2.97;;;2.63;;
23142;SDS011;11740;51.168;4.112;2022-07-17T11:55:39;3.22;;;2.47;;
23142;SDS011;11740;51.168;4.112;2022-07-17T11:58:07;4.07;;;2.47;;
23142;SDS011;11740;51.168;4.112;2022-07-17T12:00:36;3.10;;;2.63;;
23142;SDS011;11740;51.168;4.112;2022-07-17T12:03:04;3.40;;;2.63;;
23142;SDS011;11740;51.168;4.112;2022-07-17T12:05:34;6.80;;;3.10;;
23142;SDS011;11740;51.168;4.112;2022-07-17T12:08:02;5.10;;;3.00;;
23142;SDS011;11740;51.168;4.112;2022-07-17T12:10:34;6.22;;;2.80;;
23142;SDS011;11740;51.168;4.112;2022-07-17T12:13:02;3.97;;;3.10;;
23142;SDS011;11740;51.168;4.112;2022-07-17T12:15:36;4.43;;;2.40;;
23142;SDS011;11740;51.168;4.112;2022-07-17T12:18:21;6.13;;;3.00;;
23142;SDS011;11740;51.168;4.112;2022-07-17T12:20:58;5.38;;;3.05;;
23142;SDS011;11740;51.168;4.112;2022-07-17T12:23:35;6.25;;;3.30;;
23142;SDS011;11740;51.168;4.112;2022-07-17T12:26:08;4.25;;;3.00;;
23142;SDS011;11740;51.168;4.112;2022-07-17T12:28:45;3.65;;;2.72;;
23142;SDS011;11740;51.168;4.112;2022-07-17T12:31:14;5.20;;;3.17;;
23142;SDS011;11740;51.168;4.112;2022-07-17T12:33:42;4.10;;;2.72;;
23142;SDS011;11740;51.168;4.112;2022-07-17T12:36:10;5.85;;;3.17;;
23142;SDS011;11740;51.168;4.112;2022-07-17T12:38:38;5.45;;;3.20;;
23142;SDS011;11740;51.168;4.112;2022-07-17T12:41:05;4.72;;;3.03;;
23142;SDS011;11740;51.168;4.112;2022-07-17T12:43:32;4.47;;;3.13;;
23142;SDS011;11740;51.168;4.112;2022-07-17T12:46:00;3.42;;;3.10;;
23142;SDS011;11740;51.168;4.112;2022-07-17T12:48:37;4.28;;;2.60;;
23142;SDS011;11740;51.168;4.112;2022-07-17T12:51:07;6.68;;;3.05;;
23142;SDS011;11740;51.168;4.112;2022-07-17T12:53:34;3.92;;;2.58;;
23142;SDS011;11740;51.168;4.112;2022-07-17T12:56:02;3.85;;;3.00;;
23142;SDS011;11740;51.168;4.112;2022-07-17T12:58:30;4.45;;;3.00;;
23142;SDS011;11740;51.168;4.112;2022-07-17T13:00:57;4.03;;;3.03;;
23142;SDS011;11740;51.168;4.112;2022-07-17T13:03:25;5.47;;;3.35;;
23142;SDS011;11740;51.168;4.112;2022-07-17T13:05:52;3.63;;;3.20;;
23142;SDS011;11740;51.168;4.112;2022-07-17T13:08:20;4.72;;;3.10;;
23142;SDS011;11740;51.168;4.112;2022-07-17T13:10:47;4.90;;;3.03;;
23142;SDS011;11740;51.168;4.112;2022-07-17T13:13:15;6.93;;;3.00;;
23142;SDS011;11740;51.168;4.112;2022-07-17T13:15:42;4.90;;;3.22;;
23142;SDS011;11740;51.168;4.112;2022-07-17T13:18:09;4.50;;;2.92;;
23142;SDS011;11740;51.168;4.112;2022-07-17T13:20:38;4.57;;;2.95;;
23142;SDS011;11740;51.168;4.112;2022-07-17T13:23:12;6.28;;;3.20;;
23142;SDS011;11740;51.168;4.112;2022-07-17T13:25:39;3.95;;;3.28;;
23142;SDS011;11740;51.168;4.112;2022-07-17T13:28:07;5.22;;;3.40;;
23142;SDS011;11740;51.168;4.112;2022-07-17T13:30:36;5.00;;;3.08;;
23142;SDS011;11740;51.168;4.112;2022-07-17T13:33:04;3.38;;;2.92;;
23142;SDS011;11740;51.168;4.112;2022-07-17T13:35:31;6.55;;;3.17;;
23142;SDS011;11740;51.168;4.112;2022-07-17T13:37:59;4.20;;;3.22;;
23142;SDS011;11740;51.168;4.112;2022-07-17T13:40:29;5.03;;;3.20;;
23142;SDS011;11740;51.168;4.112;2022-07-17T13:42:57;5.00;;;3.20;;
23142;SDS011;11740;51.168;4.112;2022-07-17T13:45:30;4.15;;;3.30;;
23142;SDS011;11740;51.168;4.112;2022-07-17T13:47:57;5.05;;;3.20;;
23142;SDS011;11740;51.168;4.112;2022-07-17T13:50:25;7.78;;;3.38;;
23142;SDS011;11740;51.168;4.112;2022-07-17T13:52:53;3.30;;;2.92;;
23142;SDS011;11740;51.168;4.112;2022-07-17T13:55:21;4.20;;;3.22;;
23142;SDS011;11740;51.168;4.112;2022-07-17T13:58:05;4.38;;;3.25;;
23142;SDS011;11740;51.168;4.112;2022-07-17T14:00:34;6.80;;;3.70;;
23142;SDS011;11740;51.168;4.112;2022-07-17T14:03:01;4.07;;;2.90;;
23142;SDS011;11740;51.168;4.112;2022-07-17T14:05:28;5.15;;;3.10;;
23142;SDS011;11740;51.168;4.112;2022-07-17T14:07:55;4.07;;;3.00;;
23142;SDS011;11740;51.168;4.112;2022-07-17T14:10:22;5.20;;;3.05;;
23142;SDS011;11740;51.168;4.112;2022-07-17T14:12:49;5.78;;;3.20;;
23142;SDS011;11740;51.168;4.112;2022-07-17T14:15:16;3.90;;;2.88;;
23142;SDS011;11740;51.168;4.112;2022-07-17T14:17:43;5.47;;;3.45;;
23142;SDS011;11740;51.168;4.112;2022-07-17T14:20:10;4.13;;;3.20;;
23142;SDS011;11740;51.168;4.112;2022-07-17T14:22:38;4.38;;;3.15;;
23142;SDS011;11740;51.168;4.112;2022-07-17T14:25:05;3.25;;;2.78;;
23142;SDS011;11740;51.168;4.112;2022-07-17T14:27:33;4.20;;;3.20;;
23142;SDS011;11740;51.168;4.112;2022-07-17T14:30:00;6.03;;;3.45;;
23142;SDS011;11740;51.168;4.112;2022-07-17T14:32:28;5.20;;;3.10;;
23142;SDS011;11740;51.168;4.112;2022-07-17T14:34:55;3.63;;;3.20;;
23142;SDS011;11740;51.168;4.112;2022-07-17T14:37:23;4.82;;;3.45;;
23142;SDS011;11740;51.168;4.112;2022-07-17T14:39:50;3.10;;;2.80;;
23142;SDS011;11740;51.168;4.112;2022-07-17T14:42:17;4.35;;;3.13;;
23142;SDS011;11740;51.168;4.112;2022-07-17T14:44:44;5.43;;;3.28;;
23142;SDS011;11740;51.168;4.112;2022-07-17T14:47:11;3.33;;;3.03;;
23142;SDS011;11740;51.168;4.112;2022-07-17T14:49:38;4.07;;;3.10;;
23142;SDS011;11740;51.168;4.112;2022-07-17T14:52:05;3.35;;;2.75;;
23142;SDS011;11740;51.168;4.112;2022-07-17T14:54:32;3.80;;;2.85;;
23142;SDS011;11740;51.168;4.112;2022-07-17T14:56:59;3.53;;;2.80;;
23142;SDS011;11740;51.168;4.112;2022-07-17T14:59:26;4.47;;;3.22;;
23142;SDS011;11740;51.168;4.112;2022-07-17T15:01:54;4.68;;;2.92;;
23142;SDS011;11740;51.168;4.112;2022-07-17T15:04:21;4.05;;;2.88;;
23142;SDS011;11740;51.168;4.112;2022-07-17T15:06:49;3.67;;;2.83;;
23142;SDS011;11740;51.168;4.112;2022-07-17T15:09:17;3.45;;;2.88;;
23142;SDS011;11740;51.168;4.112;2022-07-17T15:11:45;3.30;;;2.88;;
23142;SDS011;11740;51.168;4.112;2022-07-17T15:14:12;4.10;;;2.90;;
23142;SDS011;11740;51.168;4.112;2022-07-17T15:16:39;6.90;;;3.30;;
23142;SDS011;11740;51.168;4.112;2022-07-17T15:19:06;3.40;;;3.10;;
23142;SDS011;11740;51.168;4.112;2022-07-17T15:21:33;4.05;;;3.00;;
23142;SDS011;11740;51.168;4.112;2022-07-17T15:24:17;3.53;;;3.22;;
23142;SDS011;11740;51.168;4.112;2022-07-17T15:26:44;3.75;;;3.00;;